Terminal Aerodrome Forecast
Issued by NWS

Home | Current Version | Previous Version | Text Only | Print | Product List | Glossary On
Versions: 1 2 3 4 5 6 7 8 9 10 11 12 13 14 15
000
FTUS45 KSLC 181726
TAF36U
TAF
K36U 181726Z 1818/1918 24018G30KT P6SM SCT060 BKN110
     FM182000 31013G23KT P6SM VCSH SCT060 BKN090
     FM190200 34007KT P6SM SCT060 BKN100
     FM190700 16005KT P6SM SCT060 BKN110=

USA.gov is the U.S. government's official web portal to all federal, state and local government web resources and services.